Time;durP1;ratioP1;P1;durP2;ratioP2;P2;SDS_P1;SDS_P2;PMS_P1;PMS_P2;Temp;Humidity;BMP_temperature;BMP_pressure;BME280_temperature;BME280_humidity;BME280_pressure;Samples;Min_cycle;Max_cycle;Signal;HPM_P1;HPM_P2
2023/01/22 00:01:23;;;;;;;25.00;13.60;;;-2.50;99.90;;;;;;6175795;23;20419;-78
2023/01/22 00:03:52;;;;;;;28.13;15.60;;;-2.50;99.90;;;;;;6174930;23;20403;-78
2023/01/22 00:06:19;;;;;;;26.87;13.97;;;-2.50;99.90;;;;;;6176924;23;21144;-78
2023/01/22 00:08:47;;;;;;;29.90;16.10;;;-2.50;99.90;;;;;;6176190;23;20415;-77
2023/01/22 00:11:16;;;;;;;27.47;12.73;;;-2.50;99.90;;;;;;6176806;23;20422;-78
2023/01/22 00:13:43;;;;;;;36.80;15.13;;;-2.40;99.90;;;;;;6176150;23;20407;-78
2023/01/22 00:16:12;;;;;;;24.17;13.67;;;-2.40;99.90;;;;;;6177321;23;20458;-78
2023/01/22 00:18:39;;;;;;;24.90;14.10;;;-2.50;99.90;;;;;;6177272;23;20424;-80
2023/01/22 00:21:07;;;;;;;33.90;13.20;;;-2.40;99.90;;;;;;6178934;23;20450;-79
2023/01/22 00:23:33;;;;;;;30.07;14.87;;;-2.40;99.90;;;;;;6179920;23;20418;-79
2023/01/22 00:26:01;;;;;;;33.03;15.10;;;-2.40;99.90;;;;;;6180145;23;20405;-78
2023/01/22 00:28:30;;;;;;;27.27;13.23;;;-2.40;99.90;;;;;;6183887;23;20427;-79
2023/01/22 00:30:57;;;;;;;26.07;14.47;;;-2.40;99.90;;;;;;6186006;23;20407;-78
2023/01/22 00:33:24;;;;;;;35.87;14.50;;;-2.40;99.90;;;;;;6184658;23;20515;-79
2023/01/22 00:35:51;;;;;;;30.47;13.30;;;-2.40;99.90;;;;;;6183836;23;20930;-78
2023/01/22 00:38:18;;;;;;;27.20;14.10;;;-2.40;99.90;;;;;;6176448;23;20416;-79
2023/01/22 00:40:44;;;;;;;27.43;14.60;;;-2.40;99.90;;;;;;6177857;23;20450;-78
2023/01/22 00:43:11;;;;;;;32.10;15.47;;;-2.40;99.90;;;;;;6175221;23;20406;-78
2023/01/22 00:45:39;;;;;;;31.97;13.50;;;-2.40;99.90;;;;;;6175178;23;20826;-78
2023/01/22 00:48:06;;;;;;;29.80;13.50;;;-2.40;99.90;;;;;;6175697;23;20485;-79
2023/01/22 00:50:33;;;;;;;24.33;13.77;;;-2.40;99.90;;;;;;6178626;23;20419;-76
2023/01/22 00:53:00;;;;;;;28.20;13.70;;;-2.40;99.90;;;;;;6176552;23;20502;-75
2023/01/22 00:55:27;;;;;;;28.53;15.60;;;-2.40;99.90;;;;;;6180112;23;20431;-75
2023/01/22 00:57:53;;;;;;;28.07;13.23;;;-2.40;99.90;;;;;;6183092;23;21001;-76
2023/01/22 01:00:21;;;;;;;29.50;13.60;;;-2.40;99.90;;;;;;6183286;23;21241;-76
2023/01/22 01:05:33;;;;;;;29.97;15.10;;;-2.40;99.90;;;;;;6177050;23;20454;-77
2023/01/22 01:08:00;;;;;;;30.53;13.07;;;-2.40;99.90;;;;;;6176054;23;20753;-76
2023/01/22 01:10:27;;;;;;;34.20;15.60;;;-2.40;99.90;;;;;;6177556;23;21201;-76
2023/01/22 01:12:53;;;;;;;26.90;13.20;;;-2.40;99.90;;;;;;6177612;23;20414;-77
2023/01/22 01:15:21;;;;;;;34.87;14.70;;;-2.30;99.90;;;;;;6178307;23;20426;-76
2023/01/22 01:17:50;;;;;;;31.50;15.20;;;-2.30;99.90;;;;;;6179844;23;20411;-77
2023/01/22 01:20:16;;;;;;;26.30;13.67;;;-2.30;99.90;;;;;;6176719;23;20450;-76
2023/01/22 01:22:43;;;;;;;26.90;15.17;;;-2.40;99.90;;;;;;6176485;23;20417;-76
2023/01/22 01:25:10;;;;;;;25.40;15.00;;;-2.40;99.90;;;;;;6177040;23;20497;-76
2023/01/22 01:27:37;;;;;;;28.50;14.70;;;-2.30;99.90;;;;;;6176678;23;20424;-77
2023/01/22 01:30:04;;;;;;;31.17;14.57;;;-2.30;99.90;;;;;;6177140;23;20410;-76
2023/01/22 01:32:31;;;;;;;27.60;13.90;;;-2.40;99.90;;;;;;6176775;23;21022;-78
2023/01/22 01:34:59;;;;;;;32.97;15.60;;;-2.40;99.90;;;;;;6176408;23;20419;-76
2023/01/22 01:37:26;;;;;;;27.70;13.40;;;-2.50;99.90;;;;;;6176586;23;20414;-76
2023/01/22 01:39:53;;;;;;;28.60;14.07;;;-2.40;99.90;;;;;;6178364;23;20458;-77
2023/01/22 01:42:25;;;;;;;34.23;14.73;;;-2.40;99.90;;;;;;6179625;23;20875;-77
2023/01/22 01:45:20;;;;;;;29.00;14.07;;;-2.30;99.90;;;;;;6179816;23;20411;-76
2023/01/22 01:47:50;;;;;;;33.03;15.47;;;-2.40;99.90;;;;;;6177003;23;20439;-77
2023/01/22 01:50:20;;;;;;;35.37;14.77;;;-2.40;99.90;;;;;;6179624;23;20656;-77
2023/01/22 01:52:47;;;;;;;37.53;16.00;;;-2.30;99.90;;;;;;6179408;23;20790;-77
2023/01/22 01:55:16;;;;;;;30.80;15.27;;;-2.30;99.90;;;;;;6180090;23;20400;-77
2023/01/22 01:57:43;;;;;;;30.03;14.37;;;-2.40;99.90;;;;;;6180358;23;20427;-77
2023/01/22 02:00:13;;;;;;;34.53;15.60;;;-2.40;99.90;;;;;;6179639;23;20447;-77
2023/01/22 02:02:40;;;;;;;35.37;16.37;;;-2.30;99.90;;;;;;6180006;23;20402;-77
2023/01/22 02:05:09;;;;;;;37.37;15.40;;;-2.40;99.90;;;;;;6179641;23;20433;-77
2023/01/22 02:07:37;;;;;;;32.77;17.00;;;-2.40;99.90;;;;;;6179957;23;20400;-77
2023/01/22 02:10:05;;;;;;;30.90;17.27;;;-2.40;99.90;;;;;;6180270;23;20412;-77
2023/01/22 02:12:32;;;;;;;35.47;15.90;;;-2.40;99.90;;;;;;6179318;23;20498;-77
2023/01/22 02:15:00;;;;;;;34.87;17.97;;;-2.40;99.90;;;;;;6179114;23;20809;-76
2023/01/22 02:17:27;;;;;;;28.00;15.03;;;-2.40;99.90;;;;;;6179915;23;20418;-77
2023/01/22 02:19:53;;;;;;;35.90;15.43;;;-2.40;99.90;;;;;;6179323;23;20431;-76
2023/01/22 02:22:24;;;;;;;32.93;16.03;;;-2.30;99.90;;;;;;6179640;23;20411;-76
2023/01/22 02:24:51;;;;;;;37.20;17.07;;;-2.40;99.90;;;;;;6179753;23;20403;-77
2023/01/22 02:27:17;;;;;;;33.13;16.30;;;-2.40;99.90;;;;;;6178790;23;20401;-76
2023/01/22 02:29:44;;;;;;;31.80;15.23;;;-2.40;99.90;;;;;;6180100;23;20407;-76
2023/01/22 02:32:11;;;;;;;33.80;17.53;;;-2.30;99.90;;;;;;6179643;23;20415;-77
2023/01/22 02:34:38;;;;;;;29.83;13.83;;;-2.30;99.90;;;;;;6179713;23;20901;-76
2023/01/22 02:37:05;;;;;;;34.87;17.00;;;-2.40;99.90;;;;;;6179874;23;20408;-76
2023/01/22 02:39:33;;;;;;;32.77;16.07;;;-2.90;99.90;;;;;;6179874;23;20427;-76
2023/01/22 02:42:01;;;;;;;35.57;16.37;;;-2.40;99.90;;;;;;6179789;23;20451;-77
2023/01/22 02:44:27;;;;;;;39.60;18.00;;;-2.40;99.90;;;;;;6178911;23;20791;-76
2023/01/22 02:46:54;;;;;;;35.77;17.73;;;-2.40;99.90;;;;;;6179537;23;20437;-76
2023/01/22 02:49:21;;;;;;;43.70;18.77;;;-2.40;99.90;;;;;;6179572;23;20439;-76
2023/01/22 02:51:48;;;;;;;40.47;18.50;;;-2.50;99.90;;;;;;6179863;23;20886;-76
2023/01/22 02:54:14;;;;;;;36.67;19.60;;;-2.50;99.90;;;;;;6179477;23;20474;-76
2023/01/22 02:56:43;;;;;;;41.63;16.53;;;-2.50;99.90;;;;;;6179195;23;20931;-77
2023/01/22 02:59:09;;;;;;;33.37;17.23;;;-2.40;99.90;;;;;;6179765;23;20426;-77
2023/01/22 03:01:36;;;;;;;35.23;17.70;;;-2.40;99.90;;;;;;6178635;23;21105;-76
2023/01/22 03:04:10;;;;;;;43.57;17.63;;;-2.40;99.90;;;;;;6179965;23;20434;-76
2023/01/22 03:06:38;;;;;;;36.13;17.17;;;-2.50;99.90;;;;;;6180004;23;20401;-76
2023/01/22 03:09:05;;;;;;;31.77;17.00;;;-2.40;99.90;;;;;;6180169;23;20546;-76
2023/01/22 03:11:34;;;;;;;40.13;18.20;;;-2.40;99.90;;;;;;6179604;23;20394;-76
2023/01/22 03:22:16;;;;;;;36.43;18.47;;;-2.10;99.90;;;;;;6179234;23;20422;-76
2023/01/22 03:24:49;;;;;;;28.87;15.20;;;-2.10;99.90;;;;;;6179617;23;20498;-76
2023/01/22 03:27:16;;;;;;;26.87;15.43;;;-2.30;99.90;;;;;;6179925;23;20394;-76
2023/01/22 03:29:44;;;;;;;27.27;15.90;;;-2.30;99.90;;;;;;6178842;23;20415;-77
2023/01/22 03:32:11;;;;;;;37.60;15.80;;;-2.30;99.90;;;;;;6178069;23;20758;-76
2023/01/22 03:34:38;;;;;;;29.63;14.53;;;-2.30;99.90;;;;;;6179209;23;20396;-77
2023/01/22 03:37:05;;;;;;;34.43;16.77;;;-2.30;99.90;;;;;;6179813;23;20411;-78
2023/01/22 03:39:32;;;;;;;35.30;15.70;;;-2.30;99.90;;;;;;6178563;23;20415;-76
2023/01/22 03:41:59;;;;;;;32.83;15.83;;;-2.40;99.90;;;;;;6178603;23;20439;-76
2023/01/22 03:44:26;;;;;;;36.90;16.80;;;-2.40;99.90;;;;;;6179744;23;20407;-76
2023/01/22 03:46:54;;;;;;;26.30;14.77;;;-2.40;99.90;;;;;;6178916;23;20414;-77
2023/01/22 03:49:21;;;;;;;40.67;17.30;;;-2.30;99.90;;;;;;6178802;23;20513;-76
2023/01/22 03:51:48;;;;;;;32.40;16.40;;;-2.40;99.90;;;;;;6179909;23;20696;-76
2023/01/22 03:54:16;;;;;;;36.67;17.93;;;-2.50;99.90;;;;;;6179130;23;20442;-77
2023/01/22 03:56:43;;;;;;;37.03;17.57;;;-2.30;99.90;;;;;;6198252;23;20435;-81
2023/01/22 03:59:11;;;;;;;34.00;15.53;;;-2.30;99.90;;;;;;6185617;23;20435;-80
2023/01/22 04:01:38;;;;;;;37.80;15.83;;;-2.30;99.90;;;;;;6180744;23;20450;-80
2023/01/22 04:04:06;;;;;;;43.13;17.50;;;-2.30;99.90;;;;;;6179770;23;20924;-79
2023/01/22 04:06:33;;;;;;;35.00;15.60;;;-2.20;99.90;;;;;;6181871;23;20437;-79
2023/01/22 04:08:59;;;;;;;33.60;15.77;;;-2.20;99.90;;;;;;6183647;23;20474;-81
2023/01/22 04:11:26;;;;;;;37.50;17.70;;;-2.30;99.90;;;;;;6180345;23;20403;-80
2023/01/22 04:13:55;;;;;;;32.67;14.80;;;-2.30;99.90;;;;;;6180443;23;20399;-79
2023/01/22 04:16:21;;;;;;;37.13;16.80;;;-2.30;99.90;;;;;;6183282;23;20422;-80
2023/01/22 04:18:48;;;;;;;35.60;18.70;;;-2.20;99.90;;;;;;6180268;23;20742;-80
2023/01/22 04:21:16;;;;;;;32.77;15.30;;;-2.20;99.90;;;;;;6179781;23;20458;-80
2023/01/22 04:23:43;;;;;;;42.57;18.50;;;-2.20;99.90;;;;;;6179658;23;20411;-80
2023/01/22 04:26:10;;;;;;;39.23;18.50;;;-2.20;99.90;;;;;;6179848;23;20440;-80
2023/01/22 04:28:37;;;;;;;35.73;17.50;;;-2.30;99.90;;;;;;6179686;23;20743;-81
2023/01/22 04:31:04;;;;;;;31.77;15.93;;;-2.30;99.90;;;;;;6180551;23;20934;-80
2023/01/22 04:33:31;;;;;;;34.90;16.87;;;-2.10;99.90;;;;;;6179951;23;20418;-80
2023/01/22 04:35:58;;;;;;;36.80;17.10;;;-2.00;99.90;;;;;;6180748;23;20442;-80
2023/01/22 04:38:26;;;;;;;35.27;16.70;;;-2.00;99.90;;;;;;6179662;23;20412;-79
2023/01/22 04:40:53;;;;;;;30.10;15.03;;;-2.10;99.90;;;;;;6186790;23;20451;-81
2023/01/22 04:43:20;;;;;;;30.47;15.53;;;-2.10;99.90;;;;;;6186135;23;20420;-79
2023/01/22 04:45:46;;;;;;;38.10;16.30;;;-2.20;99.90;;;;;;6187721;23;20421;-80
2023/01/22 04:48:13;;;;;;;29.30;16.90;;;-2.10;99.90;;;;;;6183828;23;20804;-80
2023/01/22 04:50:40;;;;;;;32.90;16.83;;;-2.10;99.90;;;;;;6188853;23;20431;-80
2023/01/22 04:53:07;;;;;;;40.97;17.77;;;-2.10;99.90;;;;;;6187747;23;20438;-80
2023/01/22 04:55:35;;;;;;;34.90;15.20;;;-2.10;99.90;;;;;;6185799;23;20390;-80
2023/01/22 04:58:02;;;;;;;38.30;17.53;;;-2.20;99.90;;;;;;6188505;23;20427;-80
2023/01/22 05:00:30;;;;;;;33.53;17.77;;;-2.10;99.90;;;;;;6186246;23;20547;-80
2023/01/22 05:02:57;;;;;;;36.70;17.00;;;-2.20;99.90;;;;;;6187214;23;20415;-80
2023/01/22 05:05:25;;;;;;;36.70;17.87;;;-2.20;99.90;;;;;;6187097;23;20416;-79
2023/01/22 05:07:52;;;;;;;32.53;16.33;;;-2.20;99.90;;;;;;6183406;23;20407;-80
2023/01/22 05:10:19;;;;;;;35.37;18.80;;;-2.20;99.90;;;;;;6182547;23;20417;-79
2023/01/22 05:12:48;;;;;;;35.07;16.43;;;-2.20;99.90;;;;;;6181557;23;20406;-81
2023/01/22 05:15:15;;;;;;;34.70;16.47;;;-2.10;99.90;;;;;;6188422;23;20429;-80
2023/01/22 05:17:42;;;;;;;28.20;14.80;;;-2.00;99.90;;;;;;6187781;23;20411;-80
2023/01/22 05:20:10;;;;;;;33.60;15.60;;;-1.90;99.90;;;;;;6185195;23;20410;-82
2023/01/22 05:22:36;;;;;;;32.33;18.07;;;-1.80;99.90;;;;;;6181226;23;20459;-80
2023/01/22 05:25:04;;;;;;;29.60;14.60;;;-2.10;99.90;;;;;;6180244;23;20410;-81
2023/01/22 05:27:30;;;;;;;36.67;14.77;;;-2.00;99.90;;;;;;6186536;23;20391;-80
2023/01/22 05:29:59;;;;;;;32.00;15.23;;;-1.90;99.90;;;;;;6189026;23;20507;-80
2023/01/22 05:32:26;;;;;;;32.00;14.03;;;-1.90;99.90;;;;;;6181984;23;20791;-82
2023/01/22 05:34:52;;;;;;;29.33;15.10;;;-1.80;99.90;;;;;;6181195;23;20781;-80
2023/01/22 05:37:19;;;;;;;26.63;14.50;;;-2.00;99.90;;;;;;6179630;23;20922;-78
2023/01/22 05:39:46;;;;;;;29.40;15.33;;;-2.10;99.90;;;;;;6178855;23;20905;-78
2023/01/22 05:42:14;;;;;;;23.47;12.97;;;-2.00;99.90;;;;;;6177615;23;20447;-78
2023/01/22 05:44:41;;;;;;;29.90;14.67;;;-1.90;99.90;;;;;;6178451;23;20419;-78
2023/01/22 05:47:09;;;;;;;27.30;14.07;;;-1.80;99.90;;;;;;6178384;23;20405;-79
2023/01/22 05:49:36;;;;;;;27.27;13.40;;;-1.80;99.90;;;;;;6178194;23;20776;-80
2023/01/22 05:52:03;;;;;;;28.97;14.57;;;-1.80;99.90;;;;;;6177870;23;20409;-80
2023/01/22 05:54:30;;;;;;;28.03;15.17;;;-1.70;99.90;;;;;;6177884;23;20447;-80
2023/01/22 07:08:37;;;;;;;22.70;11.13;;;-1.60;99.90;;;;;;6233930;22;20471;31
2023/01/22 07:11:05;;;;;;;17.40;10.50;;;-1.50;99.90;;;;;;6257513;22;20517;-91
2023/01/22 07:18:39;;;;;;;20.37;10.80;;;-1.40;99.90;;;;;;6244546;22;20430;-90
2023/01/22 07:36:37;;;;;;;18.60;11.77;;;-1.30;99.90;;;;;;6234311;22;20456;-82
2023/01/22 07:39:05;;;;;;;18.27;10.77;;;-1.30;99.90;;;;;;6252384;23;20410;-87
2023/01/22 07:41:32;;;;;;;15.70;9.40;;;-1.30;99.90;;;;;;6259279;23;20460;-91
2023/01/22 07:46:39;;;;;;;19.73;10.93;;;-1.30;99.90;;;;;;6245099;22;20444;-85
2023/01/22 07:51:42;;;;;;;20.70;11.50;;;-1.60;99.90;;;;;;6259810;22;20456;-78
2023/01/22 07:54:09;;;;;;;26.63;12.50;;;-0.10;99.90;;;;;;6270115;22;20766;-78
2023/01/22 07:56:36;;;;;;;22.07;12.67;;;-1.80;99.90;;;;;;6270706;22;20436;-77
2023/01/22 07:59:03;;;;;;;30.33;12.77;;;-1.90;99.90;;;;;;6271602;22;20405;-78
2023/01/22 08:01:30;;;;;;;25.97;13.10;;;-1.90;99.90;;;;;;6271366;22;20679;-77
2023/01/22 08:03:57;;;;;;;30.60;14.80;;;-1.90;99.90;;;;;;6273074;22;20575;-79
2023/01/22 08:06:23;;;;;;;21.80;12.20;;;-1.90;99.90;;;;;;6269008;22;20465;-77
2023/01/22 08:08:52;;;;;;;18.27;12.57;;;-1.70;99.90;;;;;;6270452;22;20882;-78
2023/01/22 08:11:18;;;;;;;25.77;12.97;;;-1.50;99.90;;;;;;6270668;22;20777;-79
2023/01/22 08:13:45;;;;;;;23.77;13.57;;;-1.40;99.90;;;;;;6276102;22;20419;-80
2023/01/22 08:16:12;;;;;;;26.43;13.47;;;-1.30;99.90;;;;;;6270159;22;20551;-78
2023/01/22 08:18:39;;;;;;;24.60;12.87;;;-1.10;99.90;;;;;;6272335;22;20440;-79
2023/01/22 08:21:06;;;;;;;21.30;12.53;;;-1.10;99.90;;;;;;6272536;22;20909;-79
2023/01/22 08:23:33;;;;;;;21.77;13.97;;;-1.00;99.90;;;;;;6271661;22;20408;-79
2023/01/22 08:26:02;;;;;;;24.63;12.83;;;-0.90;99.90;;;;;;6269025;22;20415;-78
2023/01/22 08:28:30;;;;;;;22.13;11.63;;;-1.40;99.90;;;;;;6270058;22;20415;-78
2023/01/22 08:30:58;;;;;;;31.93;14.03;;;-1.50;99.90;;;;;;6269391;22;20491;-75
2023/01/22 08:33:24;;;;;;;25.60;12.83;;;-1.70;99.90;;;;;;6268922;22;20401;-76
2023/01/22 08:41:27;;;;;;;19.95;11.95;;;-0.90;99.90;;;;;;6239698;22;20548;31
2023/01/22 08:54:19;;;;;;;23.97;12.73;;;-0.90;99.90;;;;;;6233679;22;20835;-85
2023/01/22 09:14:55;;;;;;;21.23;12.43;;;-0.50;99.90;;;;;;6254145;22;20448;-79
2023/01/22 09:17:22;;;;;;;27.70;14.23;;;-1.00;99.90;;;;;;6264230;22;20394;-86
2023/01/22 09:27:31;;;;;;;20.93;12.10;;;-0.70;99.90;;;;;;6253090;22;20471;-90
2023/01/22 09:29:58;;;;;;;21.70;13.57;;;-0.60;99.90;;;;;;6256726;23;20722;-91
2023/01/22 09:32:25;;;;;;;39.73;15.33;;;1.20;99.90;;;;;;6249892;23;20403;-84
2023/01/22 09:34:52;;;;;;;23.10;12.47;;;0.10;99.90;;;;;;6245182;23;20777;-91
2023/01/22 09:37:19;;;;;;;23.93;14.20;;;0.50;99.90;;;;;;6245778;23;20750;-76
2023/01/22 09:39:49;;;;;;;23.50;13.60;;;0.80;99.90;;;;;;6241285;23;20399;-78
2023/01/22 09:42:21;;;;;;;24.27;13.63;;;1.00;99.90;;;;;;6239252;23;20437;-77
2023/01/22 09:44:53;;;;;;;21.50;13.50;;;1.40;99.90;;;;;;6239677;23;20568;-79
2023/01/22 10:00:21;;;;;;;19.63;12.83;;;1.00;99.90;;;;;;6237796;22;20462;-90
2023/01/22 10:02:54;;;;;;;21.83;13.23;;;1.30;99.90;;;;;;6243341;22;20523;-93
2023/01/22 10:05:29;;;;;;;21.37;12.63;;;1.60;99.90;;;;;;6261408;23;20420;-93
2023/01/22 10:08:19;;;;;;;15.83;11.60;;;1.30;99.90;;;;;;6232432;23;20406;-92
2023/01/22 10:13:38;;;;;;;20.20;12.37;;;1.10;99.90;;;;;;6264117;22;20426;-92
2023/01/22 10:16:07;;;;;;;22.50;12.60;;;1.20;99.90;;;;;;6250753;23;20422;-92
2023/01/22 10:19:26;;;;;;;20.83;11.43;;;1.40;99.90;;;;;;6243455;23;20418;-91
2023/01/22 10:21:59;;;;;;;25.87;11.60;;;1.80;99.90;;;;;;6241604;23;20444;-91
2023/01/22 10:24:36;;;;;;;21.53;11.23;;;1.80;99.90;;;;;;6246746;23;20414;-93
2023/01/22 10:27:11;;;;;;;19.90;11.20;;;1.80;99.90;;;;;;6247030;22;20530;-85
2023/01/22 10:29:39;;;;;;;16.87;10.97;;;4.20;99.90;;;;;;6253854;22;20453;-94
2023/01/22 10:32:22;;;;;;;21.50;12.37;;;1.50;99.90;;;;;;6256820;22;20461;-89
2023/01/22 10:34:59;;;;;;;26.60;12.50;;;0.60;99.90;;;;;;6248606;23;20497;-94
2023/01/22 10:37:29;;;;;;;21.37;11.77;;;0.50;99.90;;;;;;6249397;23;20393;-94
2023/01/22 10:39:59;;;;;;;24.97;12.90;;;1.80;99.90;;;;;;6246633;23;20398;-93
2023/01/22 10:42:29;;;;;;;30.10;18.50;;;1.50;99.90;;;;;;6244124;23;20441;-93
2023/01/22 10:44:58;;;;;;;18.23;11.73;;;0.80;99.90;;;;;;6245725;23;20425;-94
2023/01/22 10:47:27;;;;;;;22.10;11.83;;;1.70;99.90;;;;;;6246698;23;20439;-94
2023/01/22 10:50:06;;;;;;;21.23;12.07;;;0.90;99.90;;;;;;6217711;23;20426;-96
2023/01/22 10:52:38;;;;;;;19.13;11.43;;;1.30;99.90;;;;;;6218459;23;20418;-89
2023/01/22 10:55:09;;;;;;;23.73;12.80;;;3.10;99.90;;;;;;6220308;23;20395;-93
2023/01/22 10:57:39;;;;;;;22.50;12.90;;;1.30;99.90;;;;;;6223066;23;20412;-94
2023/01/22 11:00:22;;;;;;;18.60;10.60;;;1.00;99.90;;;;;;6224034;23;20418;-93
2023/01/22 11:02:51;;;;;;;25.57;11.33;;;0.90;99.90;;;;;;6221035;23;20450;-90
2023/01/22 11:05:20;;;;;;;21.00;12.00;;;-0.10;99.90;;;;;;6218240;23;20403;-92
2023/01/22 11:07:50;;;;;;;21.30;13.00;;;0.30;99.90;;;;;;6217046;23;20399;-93
2023/01/22 11:12:57;;;;;;;17.80;10.47;;;-0.20;99.90;;;;;;6226012;22;20514;-77
2023/01/22 11:15:30;;;;;;;22.53;11.40;;;0.50;99.90;;;;;;6207502;23;20418;-80
2023/01/22 11:18:01;;;;;;;17.83;11.50;;;0.60;99.90;;;;;;6206690;23;20407;-78
2023/01/22 11:20:32;;;;;;;26.80;12.50;;;0.90;99.90;;;;;;6206713;23;20417;-77
2023/01/22 11:23:11;;;;;;;20.47;11.47;;;0.90;99.90;;;;;;6207069;23;20430;-79
2023/01/22 11:25:44;;;;;;;24.47;12.00;;;1.20;99.90;;;;;;6205640;23;20414;-81
2023/01/22 11:28:21;;;;;;;18.33;10.80;;;1.00;99.90;;;;;;6199336;23;20446;-78
2023/01/22 11:31:05;;;;;;;21.33;13.83;;;1.00;99.90;;;;;;6204705;23;20398;-76
2023/01/22 11:34:11;;;;;;;18.27;11.70;;;-0.10;99.90;;;;;;6206117;23;20428;-76
2023/01/22 11:36:44;;;;;;;19.07;11.03;;;-0.20;99.90;;;;;;6206039;23;20412;-80
2023/01/22 11:39:18;;;;;;;18.30;10.63;;;0.40;99.90;;;;;;6206266;23;20738;-76
2023/01/22 11:41:59;;;;;;;18.53;10.70;;;1.00;99.90;;;;;;6206100;23;20408;-76
2023/01/22 11:44:39;;;;;;;17.20;11.20;;;1.20;99.90;;;;;;6206049;23;20741;-82
2023/01/22 11:47:27;;;;;;;20.50;10.67;;;1.00;99.90;;;;;;6205677;23;20812;-76
2023/01/22 11:50:08;;;;;;;19.00;11.00;;;0.80;99.90;;;;;;6175793;23;20396;-75
2023/01/22 11:52:44;;;;;;;20.50;10.37;;;0.90;99.90;;;;;;6175449;23;20446;-77
2023/01/22 11:55:34;;;;;;;15.60;8.80;;;0.70;99.90;;;;;;6175498;23;20396;-75
2023/01/22 11:58:10;;;;;;;20.97;10.33;;;-0.20;99.90;;;;;;6175573;23;20395;-75
2023/01/22 12:00:44;;;;;;;17.20;10.10;;;-1.20;99.90;;;;;;6175282;23;20471;-75
2023/01/22 12:03:38;;;;;;;18.73;10.80;;;-1.50;99.90;;;;;;6174539;23;20443;-75
2023/01/22 12:06:25;;;;;;;16.73;10.40;;;-1.70;99.90;;;;;;6175432;23;20743;-75
2023/01/22 12:09:00;;;;;;;15.00;10.03;;;-1.60;99.90;;;;;;6174324;23;20495;-75
2023/01/22 12:11:43;;;;;;;18.07;10.27;;;-1.20;99.90;;;;;;6174778;23;20975;-75
2023/01/22 12:14:35;;;;;;;15.10;9.00;;;-0.60;99.90;;;;;;6174848;23;20821;-77
2023/01/22 12:17:11;;;;;;;10.50;7.50;;;-0.10;99.90;;;;;;6173403;23;20427;-76
2023/01/22 12:20:07;;;;;;;15.50;8.07;;;0.20;99.90;;;;;;6176352;23;20387;-76
2023/01/22 12:22:41;;;;;;;15.00;9.33;;;0.00;99.90;;;;;;6177149;23;20489;-76
2023/01/22 12:25:16;;;;;;;12.17;8.17;;;-0.90;99.90;;;;;;6175081;23;20410;-75
2023/01/22 12:27:49;;;;;;;12.83;8.03;;;-1.20;99.90;;;;;;6177032;23;20411;-77
2023/01/22 12:30:22;;;;;;;13.60;8.07;;;-1.10;99.90;;;;;;6175453;23;20869;-76
2023/01/22 12:32:54;;;;;;;16.00;7.83;;;-1.30;99.90;;;;;;6174343;23;20398;-76
2023/01/22 12:35:24;;;;;;;17.20;10.70;;;-1.20;99.90;;;;;;6175305;23;20407;-77
2023/01/22 12:37:58;;;;;;;19.47;9.57;;;-0.80;99.90;;;;;;6176030;23;20835;-76
2023/01/22 12:40:59;;;;;;;14.80;8.50;;;-1.00;99.90;;;;;;6175568;23;20513;-76
2023/01/22 12:43:33;;;;;;;13.00;7.83;;;-1.10;99.90;;;;;;6175465;23;20474;-75
2023/01/22 12:46:08;;;;;;;13.47;7.87;;;-0.40;99.90;;;;;;6175199;23;20442;-78
2023/01/22 12:48:43;;;;;;;23.17;12.07;;;0.10;99.90;;;;;;6174077;23;20463;-76
2023/01/22 12:51:25;;;;;;;14.30;9.10;;;-0.40;99.90;;;;;;6174675;23;20419;-77
2023/01/22 12:53:54;;;;;;;13.23;8.30;;;-0.50;99.90;;;;;;6174693;23;20650;-76
2023/01/22 12:56:31;;;;;;;13.90;7.97;;;-0.40;99.90;;;;;;6175003;23;20406;-77
2023/01/22 12:58:58;;;;;;;16.93;9.10;;;-1.20;99.90;;;;;;6174710;23;20486;-76
2023/01/22 13:01:32;;;;;;;15.17;8.60;;;-1.20;99.90;;;;;;6174166;23;20412;-76
2023/01/22 13:04:01;;;;;;;16.70;9.30;;;-0.60;99.90;;;;;;6173798;23;20467;-76
2023/01/22 13:06:34;;;;;;;15.30;8.70;;;-0.40;99.90;;;;;;6173943;23;20411;-77
2023/01/22 13:09:04;;;;;;;16.13;9.00;;;-0.20;99.90;;;;;;6174605;23;20412;-78
2023/01/22 13:11:33;;;;;;;13.30;8.40;;;-0.30;99.90;;;;;;6175850;23;20443;-76
2023/01/22 13:14:08;;;;;;;11.87;7.20;;;-0.70;99.90;;;;;;6177115;23;20411;-77
2023/01/22 13:16:37;;;;;;;14.83;8.37;;;-0.60;99.90;;;;;;6177311;23;20918;-76
2023/01/22 13:19:19;;;;;;;15.37;10.10;;;-0.30;99.90;;;;;;6177624;23;20467;-76
2023/01/22 13:21:46;;;;;;;13.33;8.40;;;-0.90;99.90;;;;;;6177502;23;20399;-76
2023/01/22 13:24:17;;;;;;;20.80;9.30;;;-0.90;99.90;;;;;;6177695;23;20451;-76
2023/01/22 13:26:51;;;;;;;13.97;8.17;;;-0.50;99.90;;;;;;6177777;23;20427;-77
2023/01/22 13:29:22;;;;;;;11.90;7.07;;;-0.40;99.90;;;;;;6176858;23;20419;-77
2023/01/22 13:31:53;;;;;;;15.83;9.23;;;-0.30;99.90;;;;;;6176745;23;20410;-76
2023/01/22 13:34:20;;;;;;;16.87;9.00;;;-0.30;99.90;;;;;;6176988;23;20630;-77
2023/01/22 13:36:51;;;;;;;18.83;9.40;;;-0.20;99.90;;;;;;6176930;23;20944;-69
2023/01/22 13:39:21;;;;;;;17.33;8.30;;;0.00;99.90;;;;;;6177045;23;20407;-70
2023/01/22 13:41:50;;;;;;;15.30;9.50;;;0.00;99.90;;;;;;6177876;23;20422;-76
2023/01/22 13:44:20;;;;;;;14.60;7.00;;;-0.60;99.90;;;;;;6177666;23;20883;-75
2023/01/22 13:46:47;;;;;;;11.03;6.57;;;-0.80;99.90;;;;;;6176874;23;20419;-75
2023/01/22 13:49:21;;;;;;;13.77;8.07;;;-0.20;99.90;;;;;;6177633;23;20438;-76
2023/01/22 13:51:48;;;;;;;13.57;8.20;;;-0.40;99.90;;;;;;6177314;23;20413;-69
2023/01/22 13:54:24;;;;;;;13.00;7.97;;;-0.30;99.90;;;;;;6177696;23;20419;-74
2023/01/22 13:56:50;;;;;;;13.43;9.17;;;-0.10;99.90;;;;;;6176981;23;20403;-77
2023/01/22 13:59:20;;;;;;;10.90;7.50;;;-0.20;99.90;;;;;;6177441;23;20479;-76
2023/01/22 14:01:48;;;;;;;13.97;8.10;;;0.00;99.90;;;;;;6177835;23;20423;-77
2023/01/22 14:04:43;;;;;;;14.67;9.50;;;0.00;99.90;;;;;;6178816;23;20808;-81
2023/01/22 14:07:16;;;;;;;14.20;7.67;;;-0.40;99.90;;;;;;6177958;23;20403;-78
2023/01/22 14:09:44;;;;;;;13.27;8.70;;;-0.80;99.90;;;;;;6180039;23;20491;-76
2023/01/22 14:12:15;;;;;;;15.57;9.97;;;-1.20;99.90;;;;;;6179280;23;20439;-77
2023/01/22 14:14:43;;;;;;;14.50;9.13;;;-1.30;99.90;;;;;;6177653;23;20418;-75
2023/01/22 14:17:21;;;;;;;17.97;6.73;;;-1.40;99.90;;;;;;6176957;23;20749;-73
2023/01/22 14:19:47;;;;;;;15.47;8.43;;;-1.40;99.90;;;;;;6177312;23;20398;-75
2023/01/22 14:22:14;;;;;;;22.50;11.00;;;-1.30;99.90;;;;;;6177136;23;20418;-75
2023/01/22 14:24:41;;;;;;;17.33;8.73;;;-1.20;99.90;;;;;;6176624;23;20955;-77
2023/01/22 14:27:09;;;;;;;18.70;10.17;;;-1.10;99.90;;;;;;6176864;23;20427;-76
2023/01/22 14:29:36;;;;;;;17.23;9.43;;;-0.90;99.90;;;;;;6176971;23;20842;-75
2023/01/22 14:32:03;;;;;;;12.00;8.90;;;-0.90;99.90;;;;;;6176873;23;20473;-75
2023/01/22 14:34:30;;;;;;;18.77;9.87;;;-0.60;99.90;;;;;;6176868;23;20909;-75
2023/01/22 14:36:57;;;;;;;19.97;11.60;;;-0.50;99.90;;;;;;6177321;23;20407;-75
2023/01/22 14:39:24;;;;;;;14.70;9.37;;;-0.50;99.90;;;;;;6176454;23;20415;-78
2023/01/22 14:41:51;;;;;;;14.83;9.70;;;-0.40;99.90;;;;;;6173192;23;20788;-77
2023/01/22 14:44:19;;;;;;;15.13;9.70;;;-0.30;99.90;;;;;;6175315;23;20473;-77
2023/01/22 14:46:46;;;;;;;15.20;8.23;;;-0.20;99.90;;;;;;6174789;23;20399;-76
2023/01/22 14:49:13;;;;;;;15.30;9.23;;;-0.30;99.90;;;;;;6175016;23;20431;-77
2023/01/22 14:51:40;;;;;;;12.70;7.60;;;-0.30;99.90;;;;;;6173912;23;20415;-75
2023/01/22 14:54:06;;;;;;;13.03;8.67;;;-0.30;99.90;;;;;;6173658;23;20450;-75
2023/01/22 14:56:33;;;;;;;15.20;9.00;;;-0.40;99.90;;;;;;6175077;23;20499;-80
2023/01/22 14:59:00;;;;;;;12.37;7.50;;;-0.30;99.90;;;;;;6175552;23;20453;-81
2023/01/22 15:01:28;;;;;;;11.07;7.67;;;-0.30;99.90;;;;;;6174808;23;20418;-78
2023/01/22 15:03:55;;;;;;;12.43;8.13;;;-0.20;99.90;;;;;;6176233;23;20525;-84
2023/01/22 15:06:23;;;;;;;14.57;8.80;;;0.50;99.90;;;;;;6177760;23;20408;-85
2023/01/22 15:08:50;;;;;;;15.53;8.67;;;1.30;99.90;;;;;;6176721;23;20424;-85
2023/01/22 15:11:16;;;;;;;19.13;9.80;;;1.60;99.90;;;;;;6179605;23;20445;-88
2023/01/22 15:13:43;;;;;;;15.83;9.90;;;0.80;99.90;;;;;;6179835;23;20388;-89
2023/01/22 15:16:11;;;;;;;13.40;7.57;;;0.50;99.90;;;;;;6176323;23;20628;-85
2023/01/22 15:18:39;;;;;;;12.23;8.40;;;0.40;99.90;;;;;;6175684;23;20404;-84
2023/01/22 15:21:06;;;;;;;14.83;9.23;;;0.20;99.90;;;;;;6175602;23;20419;-82
2023/01/22 15:23:34;;;;;;;15.23;9.67;;;0.20;99.90;;;;;;6177712;23;20445;-82
2023/01/22 15:26:03;;;;;;;13.73;8.20;;;0.00;99.90;;;;;;6179280;23;20736;-90
2023/01/22 15:28:30;;;;;;;15.03;9.80;;;0.00;99.90;;;;;;6177175;23;20422;-87
2023/01/22 15:31:06;;;;;;;15.83;10.07;;;0.00;99.90;;;;;;6176608;23;20868;-81
2023/01/22 15:33:33;;;;;;;14.80;8.00;;;-0.10;99.90;;;;;;6173369;23;20403;-81